sensor_id;sensor_type;location;lat;lon;timestamp;P1;durP1;ratioP1;P2;durP2;ratioP2
60935;SDS011;46804;51.786;19.520;2023-09-07T00:01:28;6.88;;;4.50;;
60935;SDS011;46804;51.786;19.520;2023-09-07T00:05:29;7.15;;;3.80;;
60935;SDS011;46804;51.786;19.520;2023-09-07T00:09:29;7.03;;;4.00;;
60935;SDS011;46804;51.786;19.520;2023-09-07T00:13:30;6.65;;;3.95;;
60935;SDS011;46804;51.786;19.520;2023-09-07T00:17:31;5.78;;;3.90;;
60935;SDS011;46804;51.786;19.520;2023-09-07T00:21:32;5.90;;;3.80;;
60935;SDS011;46804;51.786;19.520;2023-09-07T00:25:33;6.90;;;3.90;;
60935;SDS011;46804;51.786;19.520;2023-09-07T00:29:34;8.00;;;4.63;;
60935;SDS011;46804;51.786;19.520;2023-09-07T00:33:35;13.18;;;4.03;;
60935;SDS011;46804;51.786;19.520;2023-09-07T00:37:36;7.38;;;3.83;;
60935;SDS011;46804;51.786;19.520;2023-09-07T00:41:37;6.93;;;4.05;;
60935;SDS011;46804;51.786;19.520;2023-09-07T00:45:38;6.10;;;3.67;;
60935;SDS011;46804;51.786;19.520;2023-09-07T00:49:39;6.30;;;3.85;;
60935;SDS011;46804;51.786;19.520;2023-09-07T00:53:41;5.40;;;3.50;;
60935;SDS011;46804;51.786;19.520;2023-09-07T00:57:42;6.43;;;3.90;;
60935;SDS011;46804;51.786;19.520;2023-09-07T01:01:43;6.70;;;3.90;;
60935;SDS011;46804;51.786;19.520;2023-09-07T01:05:51;7.40;;;3.63;;
60935;SDS011;46804;51.786;19.520;2023-09-07T01:09:56;5.57;;;3.67;;
60935;SDS011;46804;51.786;19.520;2023-09-07T01:13:59;7.35;;;4.60;;
60935;SDS011;46804;51.786;19.520;2023-09-07T01:18:00;7.70;;;4.28;;
60935;SDS011;46804;51.786;19.520;2023-09-07T01:22:02;7.25;;;3.72;;
60935;SDS011;46804;51.786;19.520;2023-09-07T01:26:05;8.15;;;4.05;;
60935;SDS011;46804;51.786;19.520;2023-09-07T01:30:08;8.75;;;4.25;;
60935;SDS011;46804;51.786;19.520;2023-09-07T01:34:09;7.93;;;4.18;;
60935;SDS011;46804;51.786;19.520;2023-09-07T01:38:10;8.00;;;4.43;;
60935;SDS011;46804;51.786;19.520;2023-09-07T01:42:11;7.38;;;4.40;;
60935;SDS011;46804;51.786;19.520;2023-09-07T01:46:11;10.18;;;4.32;;
60935;SDS011;46804;51.786;19.520;2023-09-07T01:50:12;6.90;;;3.97;;
60935;SDS011;46804;51.786;19.520;2023-09-07T01:54:14;7.30;;;4.00;;
60935;SDS011;46804;51.786;19.520;2023-09-07T01:58:15;8.30;;;4.45;;
60935;SDS011;46804;51.786;19.520;2023-09-07T02:02:15;7.72;;;4.38;;
60935;SDS011;46804;51.786;19.520;2023-09-07T02:06:16;6.80;;;4.25;;
60935;SDS011;46804;51.786;19.520;2023-09-07T02:10:17;6.85;;;4.45;;
60935;SDS011;46804;51.786;19.520;2023-09-07T02:14:17;9.15;;;4.80;;
60935;SDS011;46804;51.786;19.520;2023-09-07T02:18:18;8.23;;;4.68;;
60935;SDS011;46804;51.786;19.520;2023-09-07T02:22:20;5.95;;;4.28;;
60935;SDS011;46804;51.786;19.520;2023-09-07T02:26:20;8.98;;;4.65;;
60935;SDS011;46804;51.786;19.520;2023-09-07T02:30:21;5.95;;;3.75;;
60935;SDS011;46804;51.786;19.520;2023-09-07T02:34:22;7.38;;;4.07;;
60935;SDS011;46804;51.786;19.520;2023-09-07T02:38:23;6.53;;;4.30;;
60935;SDS011;46804;51.786;19.520;2023-09-07T02:42:23;8.68;;;4.10;;
60935;SDS011;46804;51.786;19.520;2023-09-07T02:46:24;10.02;;;4.57;;
60935;SDS011;46804;51.786;19.520;2023-09-07T02:50:25;6.28;;;4.30;;
60935;SDS011;46804;51.786;19.520;2023-09-07T02:54:26;7.95;;;4.90;;
60935;SDS011;46804;51.786;19.520;2023-09-07T02:58:26;6.63;;;4.30;;
60935;SDS011;46804;51.786;19.520;2023-09-07T03:02:28;7.97;;;4.70;;
60935;SDS011;46804;51.786;19.520;2023-09-07T03:06:28;8.80;;;4.25;;
60935;SDS011;46804;51.786;19.520;2023-09-07T03:10:29;6.97;;;3.85;;
60935;SDS011;46804;51.786;19.520;2023-09-07T03:14:30;7.13;;;4.38;;
60935;SDS011;46804;51.786;19.520;2023-09-07T03:18:31;8.38;;;4.05;;
60935;SDS011;46804;51.786;19.520;2023-09-07T03:22:32;6.47;;;3.85;;
60935;SDS011;46804;51.786;19.520;2023-09-07T03:26:33;6.68;;;4.32;;
60935;SDS011;46804;51.786;19.520;2023-09-07T03:30:33;8.77;;;4.35;;
60935;SDS011;46804;51.786;19.520;2023-09-07T03:34:34;8.30;;;3.92;;
60935;SDS011;46804;51.786;19.520;2023-09-07T03:38:35;6.05;;;4.13;;
60935;SDS011;46804;51.786;19.520;2023-09-07T03:42:36;7.05;;;4.22;;
60935;SDS011;46804;51.786;19.520;2023-09-07T03:46:36;8.85;;;3.97;;
60935;SDS011;46804;51.786;19.520;2023-09-07T03:50:37;5.60;;;3.78;;
60935;SDS011;46804;51.786;19.520;2023-09-07T03:54:38;7.03;;;3.90;;
60935;SDS011;46804;51.786;19.520;2023-09-07T03:58:39;7.47;;;3.95;;
60935;SDS011;46804;51.786;19.520;2023-09-07T04:02:39;7.35;;;4.50;;
60935;SDS011;46804;51.786;19.520;2023-09-07T04:06:40;7.53;;;3.58;;
60935;SDS011;46804;51.786;19.520;2023-09-07T04:10:41;6.28;;;4.43;;
60935;SDS011;46804;51.786;19.520;2023-09-07T04:14:42;7.57;;;4.10;;
60935;SDS011;46804;51.786;19.520;2023-09-07T04:18:42;6.68;;;3.85;;
60935;SDS011;46804;51.786;19.520;2023-09-07T04:22:44;7.35;;;3.72;;
60935;SDS011;46804;51.786;19.520;2023-09-07T04:26:47;6.45;;;4.30;;
60935;SDS011;46804;51.786;19.520;2023-09-07T04:30:47;7.93;;;4.13;;
60935;SDS011;46804;51.786;19.520;2023-09-07T04:34:52;6.03;;;3.85;;
60935;SDS011;46804;51.786;19.520;2023-09-07T04:38:54;7.93;;;4.05;;
60935;SDS011;46804;51.786;19.520;2023-09-07T04:42:55;7.85;;;4.35;;
60935;SDS011;46804;51.786;19.520;2023-09-07T04:46:55;10.57;;;4.22;;
60935;SDS011;46804;51.786;19.520;2023-09-07T04:51:02;6.63;;;4.00;;
60935;SDS011;46804;51.786;19.520;2023-09-07T04:55:05;11.65;;;4.35;;
60935;SDS011;46804;51.786;19.520;2023-09-07T04:59:05;7.28;;;4.28;;
60935;SDS011;46804;51.786;19.520;2023-09-07T05:03:06;9.88;;;4.90;;
60935;SDS011;46804;51.786;19.520;2023-09-07T05:07:07;6.97;;;4.45;;
60935;SDS011;46804;51.786;19.520;2023-09-07T05:11:08;7.82;;;4.30;;
60935;SDS011;46804;51.786;19.520;2023-09-07T05:15:09;7.82;;;4.10;;
60935;SDS011;46804;51.786;19.520;2023-09-07T05:19:10;10.10;;;4.50;;
60935;SDS011;46804;51.786;19.520;2023-09-07T05:23:13;12.57;;;4.93;;
60935;SDS011;46804;51.786;19.520;2023-09-07T05:27:16;13.20;;;4.80;;
60935;SDS011;46804;51.786;19.520;2023-09-07T05:31:17;14.88;;;4.68;;
60935;SDS011;46804;51.786;19.520;2023-09-07T05:35:17;18.92;;;4.95;;
60935;SDS011;46804;51.786;19.520;2023-09-07T05:39:18;10.80;;;5.38;;
60935;SDS011;46804;51.786;19.520;2023-09-07T05:43:19;15.48;;;4.80;;
60935;SDS011;46804;51.786;19.520;2023-09-07T05:47:19;16.48;;;4.70;;
60935;SDS011;46804;51.786;19.520;2023-09-07T05:51:20;9.30;;;4.30;;
60935;SDS011;46804;51.786;19.520;2023-09-07T05:55:21;7.53;;;4.07;;
60935;SDS011;46804;51.786;19.520;2023-09-07T05:59:22;9.20;;;4.10;;
60935;SDS011;46804;51.786;19.520;2023-09-07T06:03:22;12.25;;;4.82;;
60935;SDS011;46804;51.786;19.520;2023-09-07T06:07:23;7.63;;;4.32;;
60935;SDS011;46804;51.786;19.520;2023-09-07T06:11:24;7.78;;;4.43;;
60935;SDS011;46804;51.786;19.520;2023-09-07T06:15:25;9.35;;;4.18;;
60935;SDS011;46804;51.786;19.520;2023-09-07T06:19:26;9.63;;;4.38;;
60935;SDS011;46804;51.786;19.520;2023-09-07T06:23:26;7.57;;;4.20;;
60935;SDS011;46804;51.786;19.520;2023-09-07T06:27:27;8.93;;;4.70;;
60935;SDS011;46804;51.786;19.520;2023-09-07T06:31:28;7.15;;;3.97;;
60935;SDS011;46804;51.786;19.520;2023-09-07T06:35:29;6.95;;;3.63;;
60935;SDS011;46804;51.786;19.520;2023-09-07T06:39:30;12.43;;;3.90;;
60935;SDS011;46804;51.786;19.520;2023-09-07T06:43:31;8.35;;;3.88;;
60935;SDS011;46804;51.786;19.520;2023-09-07T06:47:33;11.27;;;4.00;;
60935;SDS011;46804;51.786;19.520;2023-09-07T06:51:33;10.85;;;3.67;;
60935;SDS011;46804;51.786;19.520;2023-09-07T06:55:34;8.80;;;3.63;;
60935;SDS011;46804;51.786;19.520;2023-09-07T06:59:35;13.77;;;3.83;;
60935;SDS011;46804;51.786;19.520;2023-09-07T07:03:36;8.98;;;3.60;;
60935;SDS011;46804;51.786;19.520;2023-09-07T07:07:36;12.90;;;3.65;;
60935;SDS011;46804;51.786;19.520;2023-09-07T07:11:37;9.38;;;3.42;;
60935;SDS011;46804;51.786;19.520;2023-09-07T07:15:39;5.55;;;3.45;;
60935;SDS011;46804;51.786;19.520;2023-09-07T07:19:40;6.30;;;3.35;;
60935;SDS011;46804;51.786;19.520;2023-09-07T07:23:43;7.82;;;3.22;;
60935;SDS011;46804;51.786;19.520;2023-09-07T07:27:44;11.15;;;3.50;;
60935;SDS011;46804;51.786;19.520;2023-09-07T07:31:46;6.70;;;3.30;;
60935;SDS011;46804;51.786;19.520;2023-09-07T07:35:47;10.13;;;3.33;;
60935;SDS011;46804;51.786;19.520;2023-09-07T07:39:48;7.97;;;3.53;;
60935;SDS011;46804;51.786;19.520;2023-09-07T07:43:49;9.80;;;3.85;;
60935;SDS011;46804;51.786;19.520;2023-09-07T07:47:49;8.07;;;3.42;;
60935;SDS011;46804;51.786;19.520;2023-09-07T07:51:50;7.25;;;3.67;;
60935;SDS011;46804;51.786;19.520;2023-09-07T07:55:51;8.25;;;3.50;;
60935;SDS011;46804;51.786;19.520;2023-09-07T07:59:52;8.95;;;4.07;;
60935;SDS011;46804;51.786;19.520;2023-09-07T08:03:53;8.75;;;4.03;;
60935;SDS011;46804;51.786;19.520;2023-09-07T08:07:54;6.03;;;3.58;;
60935;SDS011;46804;51.786;19.520;2023-09-07T08:11:57;8.93;;;4.18;;
60935;SDS011;46804;51.786;19.520;2023-09-07T08:15:57;6.20;;;3.75;;
60935;SDS011;46804;51.786;19.520;2023-09-07T08:19:58;11.00;;;3.55;;
60935;SDS011;46804;51.786;19.520;2023-09-07T08:23:59;11.50;;;3.78;;
60935;SDS011;46804;51.786;19.520;2023-09-07T08:28:00;8.57;;;3.67;;
60935;SDS011;46804;51.786;19.520;2023-09-07T08:32:05;6.45;;;3.00;;
60935;SDS011;46804;51.786;19.520;2023-09-07T08:36:06;5.78;;;3.08;;
60935;SDS011;46804;51.786;19.520;2023-09-07T08:44:10;10.23;;;3.20;;
60935;SDS011;46804;51.786;19.520;2023-09-07T08:48:12;5.63;;;3.08;;
60935;SDS011;46804;51.786;19.520;2023-09-07T08:52:16;5.85;;;3.28;;
60935;SDS011;46804;51.786;19.520;2023-09-07T08:56:17;7.47;;;3.33;;
60935;SDS011;46804;51.786;19.520;2023-09-07T09:00:19;6.47;;;3.45;;
60935;SDS011;46804;51.786;19.520;2023-09-07T09:04:20;8.77;;;3.55;;
60935;SDS011;46804;51.786;19.520;2023-09-07T09:08:23;8.07;;;3.20;;
60935;SDS011;46804;51.786;19.520;2023-09-07T09:12:24;9.85;;;3.10;;
60935;SDS011;46804;51.786;19.520;2023-09-07T09:16:25;6.18;;;2.92;;
60935;SDS011;46804;51.786;19.520;2023-09-07T09:20:26;5.43;;;2.90;;
60935;SDS011;46804;51.786;19.520;2023-09-07T09:24:27;5.65;;;3.45;;
60935;SDS011;46804;51.786;19.520;2023-09-07T09:28:27;8.15;;;3.30;;
60935;SDS011;46804;51.786;19.520;2023-09-07T09:32:29;7.15;;;3.30;;
60935;SDS011;46804;51.786;19.520;2023-09-07T09:36:33;5.10;;;3.25;;
60935;SDS011;46804;51.786;19.520;2023-09-07T09:40:37;4.18;;;2.97;;
60935;SDS011;46804;51.786;19.520;2023-09-07T09:48:41;4.22;;;2.90;;
60935;SDS011;46804;51.786;19.520;2023-09-07T09:52:42;9.20;;;3.28;;
60935;SDS011;46804;51.786;19.520;2023-09-07T09:56:45;5.75;;;3.30;;
60935;SDS011;46804;51.786;19.520;2023-09-07T10:00:47;6.57;;;3.55;;
60935;SDS011;46804;51.786;19.520;2023-09-07T10:04:50;7.25;;;3.40;;
60935;SDS011;46804;51.786;19.520;2023-09-07T10:08:55;7.17;;;3.23;;
60935;SDS011;46804;51.786;19.520;2023-09-07T10:13:00;6.40;;;3.20;;
60935;SDS011;46804;51.786;19.520;2023-09-07T10:17:00;5.43;;;3.03;;
60935;SDS011;46804;51.786;19.520;2023-09-07T10:21:05;10.10;;;3.08;;
60935;SDS011;46804;51.786;19.520;2023-09-07T10:25:17;4.22;;;2.90;;
60935;SDS011;46804;51.786;19.520;2023-09-07T10:29:19;5.55;;;3.17;;
60935;SDS011;46804;51.786;19.520;2023-09-07T10:33:20;8.88;;;3.53;;
60935;SDS011;46804;51.786;19.520;2023-09-07T10:37:27;9.60;;;3.35;;
60935;SDS011;46804;51.786;19.520;2023-09-07T10:41:29;5.25;;;3.10;;
60935;SDS011;46804;51.786;19.520;2023-09-07T10:45:43;6.47;;;3.30;;
60935;SDS011;46804;51.786;19.520;2023-09-07T10:49:44;4.50;;;3.15;;
60935;SDS011;46804;51.786;19.520;2023-09-07T10:53:45;7.47;;;3.77;;
60935;SDS011;46804;51.786;19.520;2023-09-07T10:57:47;5.37;;;2.90;;
60935;SDS011;46804;51.786;19.520;2023-09-07T11:01:48;7.75;;;3.28;;
60935;SDS011;46804;51.786;19.520;2023-09-07T11:05:49;5.97;;;2.90;;
60935;SDS011;46804;51.786;19.520;2023-09-07T11:09:54;7.07;;;3.40;;
60935;SDS011;46804;51.786;19.520;2023-09-07T11:13:56;5.27;;;2.83;;
60935;SDS011;46804;51.786;19.520;2023-09-07T11:17:57;6.20;;;3.15;;
60935;SDS011;46804;51.786;19.520;2023-09-07T11:21:58;6.13;;;3.15;;
60935;SDS011;46804;51.786;19.520;2023-09-07T11:25:59;7.13;;;3.33;;
60935;SDS011;46804;51.786;19.520;2023-09-07T11:30:00;8.27;;;2.97;;
60935;SDS011;46804;51.786;19.520;2023-09-07T11:34:08;6.88;;;3.38;;
60935;SDS011;46804;51.786;19.520;2023-09-07T11:38:12;9.23;;;3.15;;
60935;SDS011;46804;51.786;19.520;2023-09-07T11:42:14;6.93;;;2.97;;
60935;SDS011;46804;51.786;19.520;2023-09-07T11:46:15;5.20;;;2.95;;
60935;SDS011;46804;51.786;19.520;2023-09-07T11:50:16;9.20;;;3.13;;
60935;SDS011;46804;51.786;19.520;2023-09-07T11:54:18;6.90;;;3.22;;
60935;SDS011;46804;51.786;19.520;2023-09-07T11:58:19;6.00;;;3.50;;
60935;SDS011;46804;51.786;19.520;2023-09-07T12:02:20;4.33;;;3.00;;
60935;SDS011;46804;51.786;19.520;2023-09-07T12:06:21;6.30;;;3.05;;
60935;SDS011;46804;51.786;19.520;2023-09-07T12:10:23;7.53;;;3.00;;
60935;SDS011;46804;51.786;19.520;2023-09-07T12:14:24;4.80;;;2.90;;
60935;SDS011;46804;51.786;19.520;2023-09-07T12:18:25;5.70;;;2.67;;
60935;SDS011;46804;51.786;19.520;2023-09-07T12:22:28;7.53;;;2.70;;
60935;SDS011;46804;51.786;19.520;2023-09-07T12:26:29;8.27;;;3.30;;
60935;SDS011;46804;51.786;19.520;2023-09-07T12:30:30;12.10;;;3.10;;
60935;SDS011;46804;51.786;19.520;2023-09-07T12:34:31;8.80;;;3.10;;
60935;SDS011;46804;51.786;19.520;2023-09-07T12:38:31;6.27;;;3.17;;
60935;SDS011;46804;51.786;19.520;2023-09-07T12:42:32;6.10;;;2.90;;
60935;SDS011;46804;51.786;19.520;2023-09-07T12:46:33;6.80;;;3.07;;
60935;SDS011;46804;51.786;19.520;2023-09-07T12:50:33;8.03;;;3.53;;
60935;SDS011;46804;51.786;19.520;2023-09-07T12:54:36;7.15;;;3.05;;
60935;SDS011;46804;51.786;19.520;2023-09-07T12:58:37;10.57;;;3.58;;
60935;SDS011;46804;51.786;19.520;2023-09-07T13:02:38;7.63;;;3.25;;
60935;SDS011;46804;51.786;19.520;2023-09-07T13:06:39;5.30;;;3.13;;
60935;SDS011;46804;51.786;19.520;2023-09-07T13:10:40;5.32;;;2.75;;
60935;SDS011;46804;51.786;19.520;2023-09-07T13:14:41;9.13;;;2.73;;
60935;SDS011;46804;51.786;19.520;2023-09-07T13:18:41;7.93;;;2.87;;
60935;SDS011;46804;51.786;19.520;2023-09-07T13:22:43;8.27;;;2.90;;
60935;SDS011;46804;51.786;19.520;2023-09-07T13:26:46;6.43;;;2.83;;
60935;SDS011;46804;51.786;19.520;2023-09-07T13:30:47;5.45;;;3.15;;
60935;SDS011;46804;51.786;19.520;2023-09-07T13:34:48;4.88;;;3.03;;
60935;SDS011;46804;51.786;19.520;2023-09-07T13:38:49;6.25;;;2.85;;
60935;SDS011;46804;51.786;19.520;2023-09-07T13:42:49;5.88;;;2.90;;
60935;SDS011;46804;51.786;19.520;2023-09-07T13:46:50;6.03;;;3.47;;
60935;SDS011;46804;51.786;19.520;2023-09-07T13:50:54;5.65;;;3.15;;
60935;SDS011;46804;51.786;19.520;2023-09-07T13:54:55;7.13;;;3.55;;
60935;SDS011;46804;51.786;19.520;2023-09-07T13:58:56;5.57;;;3.40;;
60935;SDS011;46804;51.786;19.520;2023-09-07T14:02:56;11.05;;;3.22;;
60935;SDS011;46804;51.786;19.520;2023-09-07T14:06:58;5.78;;;3.40;;
60935;SDS011;46804;51.786;19.520;2023-09-07T14:10:58;6.32;;;3.17;;
60935;SDS011;46804;51.786;19.520;2023-09-07T14:14:59;5.13;;;3.22;;
60935;SDS011;46804;51.786;19.520;2023-09-07T14:19:00;9.27;;;3.70;;
60935;SDS011;46804;51.786;19.520;2023-09-07T14:23:01;5.75;;;3.15;;
60935;SDS011;46804;51.786;19.520;2023-09-07T14:27:02;9.25;;;3.53;;
60935;SDS011;46804;51.786;19.520;2023-09-07T14:31:03;4.72;;;3.10;;
60935;SDS011;46804;51.786;19.520;2023-09-07T14:35:06;8.88;;;3.58;;
60935;SDS011;46804;51.786;19.520;2023-09-07T14:39:09;8.07;;;3.60;;
60935;SDS011;46804;51.786;19.520;2023-09-07T14:43:10;10.05;;;3.47;;
60935;SDS011;46804;51.786;19.520;2023-09-07T14:47:11;5.72;;;3.45;;
60935;SDS011;46804;51.786;19.520;2023-09-07T14:51:13;4.50;;;2.83;;
60935;SDS011;46804;51.786;19.520;2023-09-07T14:55:13;7.80;;;3.50;;
60935;SDS011;46804;51.786;19.520;2023-09-07T14:59:15;5.43;;;3.58;;
60935;SDS011;46804;51.786;19.520;2023-09-07T15:03:16;7.63;;;3.40;;
60935;SDS011;46804;51.786;19.520;2023-09-07T15:07:16;6.53;;;3.60;;
60935;SDS011;46804;51.786;19.520;2023-09-07T15:11:20;4.78;;;3.20;;
60935;SDS011;46804;51.786;19.520;2023-09-07T15:15:22;6.68;;;3.33;;
60935;SDS011;46804;51.786;19.520;2023-09-07T15:19:23;7.78;;;3.17;;
60935;SDS011;46804;51.786;19.520;2023-09-07T15:23:25;5.78;;;2.95;;
60935;SDS011;46804;51.786;19.520;2023-09-07T15:27:26;5.67;;;3.20;;
60935;SDS011;46804;51.786;19.520;2023-09-07T15:31:27;6.60;;;3.55;;
60935;SDS011;46804;51.786;19.520;2023-09-07T15:35:28;5.25;;;3.38;;
60935;SDS011;46804;51.786;19.520;2023-09-07T15:39:29;7.15;;;3.40;;
60935;SDS011;46804;51.786;19.520;2023-09-07T15:43:30;4.47;;;3.03;;
60935;SDS011;46804;51.786;19.520;2023-09-07T15:51:36;10.43;;;3.10;;
60935;SDS011;46804;51.786;19.520;2023-09-07T15:55:37;5.88;;;3.78;;
60935;SDS011;46804;51.786;19.520;2023-09-07T15:59:39;9.73;;;3.70;;
60935;SDS011;46804;51.786;19.520;2023-09-07T16:03:40;11.63;;;3.97;;
60935;SDS011;46804;51.786;19.520;2023-09-07T16:07:41;10.02;;;3.55;;
60935;SDS011;46804;51.786;19.520;2023-09-07T16:11:42;7.85;;;3.58;;
60935;SDS011;46804;51.786;19.520;2023-09-07T16:15:43;6.60;;;3.72;;
60935;SDS011;46804;51.786;19.520;2023-09-07T16:19:44;7.85;;;3.20;;
60935;SDS011;46804;51.786;19.520;2023-09-07T16:23:45;7.18;;;3.60;;
60935;SDS011;46804;51.786;19.520;2023-09-07T16:27:46;7.95;;;3.50;;
60935;SDS011;46804;51.786;19.520;2023-09-07T16:31:47;5.93;;;3.60;;
60935;SDS011;46804;51.786;19.520;2023-09-07T16:35:48;10.32;;;3.75;;
60935;SDS011;46804;51.786;19.520;2023-09-07T16:39:49;6.30;;;3.70;;
60935;SDS011;46804;51.786;19.520;2023-09-07T16:43:52;8.98;;;3.60;;
60935;SDS011;46804;51.786;19.520;2023-09-07T16:47:53;14.05;;;3.83;;
60935;SDS011;46804;51.786;19.520;2023-09-07T16:51:54;5.15;;;3.50;;
60935;SDS011;46804;51.786;19.520;2023-09-07T16:55:57;10.02;;;3.72;;
60935;SDS011;46804;51.786;19.520;2023-09-07T16:59:58;12.27;;;3.65;;
60935;SDS011;46804;51.786;19.520;2023-09-07T17:03:59;6.32;;;3.53;;
60935;SDS011;46804;51.786;19.520;2023-09-07T17:08:00;11.32;;;4.15;;
60935;SDS011;46804;51.786;19.520;2023-09-07T17:12:01;9.40;;;3.92;;
60935;SDS011;46804;51.786;19.520;2023-09-07T17:16:02;9.40;;;3.83;;
60935;SDS011;46804;51.786;19.520;2023-09-07T17:20:04;10.00;;;4.03;;
60935;SDS011;46804;51.786;19.520;2023-09-07T17:24:08;12.98;;;5.15;;
60935;SDS011;46804;51.786;19.520;2023-09-07T17:28:10;14.13;;;4.82;;
60935;SDS011;46804;51.786;19.520;2023-09-07T17:32:11;11.13;;;4.47;;
60935;SDS011;46804;51.786;19.520;2023-09-07T17:36:16;10.52;;;5.60;;
60935;SDS011;46804;51.786;19.520;2023-09-07T17:40:18;10.00;;;4.28;;
60935;SDS011;46804;51.786;19.520;2023-09-07T17:44:20;11.95;;;4.38;;
60935;SDS011;46804;51.786;19.520;2023-09-07T17:48:20;9.52;;;4.43;;
60935;SDS011;46804;51.786;19.520;2023-09-07T17:52:21;9.70;;;3.88;;
60935;SDS011;46804;51.786;19.520;2023-09-07T17:56:23;11.00;;;4.50;;
60935;SDS011;46804;51.786;19.520;2023-09-07T18:00:25;18.08;;;5.45;;
60935;SDS011;46804;51.786;19.520;2023-09-07T18:04:26;12.05;;;4.60;;
60935;SDS011;46804;51.786;19.520;2023-09-07T18:08:26;10.65;;;4.50;;
60935;SDS011;46804;51.786;19.520;2023-09-07T18:12:27;10.02;;;4.30;;
60935;SDS011;46804;51.786;19.520;2023-09-07T18:16:28;7.78;;;4.20;;
60935;SDS011;46804;51.786;19.520;2023-09-07T18:20:29;11.68;;;4.35;;
60935;SDS011;46804;51.786;19.520;2023-09-07T18:24:31;9.50;;;4.30;;
60935;SDS011;46804;51.786;19.520;2023-09-07T18:28:32;7.20;;;4.43;;
60935;SDS011;46804;51.786;19.520;2023-09-07T18:32:33;11.90;;;4.43;;
60935;SDS011;46804;51.786;19.520;2023-09-07T18:36:34;11.60;;;4.72;;
60935;SDS011;46804;51.786;19.520;2023-09-07T18:40:35;15.75;;;5.50;;
60935;SDS011;46804;51.786;19.520;2023-09-07T18:44:35;12.90;;;5.03;;
60935;SDS011;46804;51.786;19.520;2023-09-07T18:48:36;11.93;;;4.53;;
60935;SDS011;46804;51.786;19.520;2023-09-07T18:52:37;13.20;;;5.28;;
60935;SDS011;46804;51.786;19.520;2023-09-07T18:56:37;11.02;;;5.45;;
60935;SDS011;46804;51.786;19.520;2023-09-07T19:00:38;13.90;;;5.78;;
60935;SDS011;46804;51.786;19.520;2023-09-07T19:04:39;13.98;;;5.80;;
60935;SDS011;46804;51.786;19.520;2023-09-07T19:08:40;11.05;;;5.43;;
60935;SDS011;46804;51.786;19.520;2023-09-07T19:12:40;11.02;;;5.68;;
60935;SDS011;46804;51.786;19.520;2023-09-07T19:16:42;10.95;;;5.97;;
60935;SDS011;46804;51.786;19.520;2023-09-07T19:20:43;8.93;;;5.32;;
60935;SDS011;46804;51.786;19.520;2023-09-07T19:24:44;8.27;;;5.57;;
60935;SDS011;46804;51.786;19.520;2023-09-07T19:28:45;11.13;;;5.57;;
60935;SDS011;46804;51.786;19.520;2023-09-07T19:32:46;8.13;;;4.95;;
60935;SDS011;46804;51.786;19.520;2023-09-07T19:36:46;8.13;;;5.50;;
60935;SDS011;46804;51.786;19.520;2023-09-07T19:40:47;9.27;;;5.82;;
60935;SDS011;46804;51.786;19.520;2023-09-07T19:44:48;12.38;;;5.82;;
60935;SDS011;46804;51.786;19.520;2023-09-07T19:48:48;7.47;;;5.50;;
60935;SDS011;46804;51.786;19.520;2023-09-07T19:52:49;16.50;;;6.32;;
60935;SDS011;46804;51.786;19.520;2023-09-07T19:56:50;11.02;;;6.13;;
60935;SDS011;46804;51.786;19.520;2023-09-07T20:00:50;10.45;;;6.65;;
60935;SDS011;46804;51.786;19.520;2023-09-07T20:04:51;10.40;;;6.22;;
60935;SDS011;46804;51.786;19.520;2023-09-07T20:08:51;12.18;;;6.50;;
60935;SDS011;46804;51.786;19.520;2023-09-07T20:12:52;9.65;;;5.95;;
60935;SDS011;46804;51.786;19.520;2023-09-07T20:16:53;12.00;;;5.93;;
60935;SDS011;46804;51.786;19.520;2023-09-07T20:20:54;15.52;;;7.18;;
60935;SDS011;46804;51.786;19.520;2023-09-07T20:24:55;13.32;;;6.45;;
60935;SDS011;46804;51.786;19.520;2023-09-07T20:28:56;10.98;;;6.68;;
60935;SDS011;46804;51.786;19.520;2023-09-07T20:32:57;13.38;;;6.45;;
60935;SDS011;46804;51.786;19.520;2023-09-07T20:36:57;10.00;;;6.03;;
60935;SDS011;46804;51.786;19.520;2023-09-07T20:40:58;9.60;;;6.43;;
60935;SDS011;46804;51.786;19.520;2023-09-07T20:45:00;8.82;;;5.88;;
60935;SDS011;46804;51.786;19.520;2023-09-07T20:49:00;10.50;;;6.45;;
60935;SDS011;46804;51.786;19.520;2023-09-07T20:53:01;8.48;;;6.18;;
60935;SDS011;46804;51.786;19.520;2023-09-07T20:57:02;10.38;;;6.10;;
60935;SDS011;46804;51.786;19.520;2023-09-07T21:01:05;9.43;;;5.50;;
60935;SDS011;46804;51.786;19.520;2023-09-07T21:05:06;8.18;;;5.90;;
60935;SDS011;46804;51.786;19.520;2023-09-07T21:09:07;13.32;;;5.95;;
60935;SDS011;46804;51.786;19.520;2023-09-07T21:13:08;10.13;;;5.82;;
60935;SDS011;46804;51.786;19.520;2023-09-07T21:17:08;8.10;;;5.40;;
60935;SDS011;46804;51.786;19.520;2023-09-07T21:21:10;10.82;;;6.00;;
60935;SDS011;46804;51.786;19.520;2023-09-07T21:25:10;9.10;;;6.20;;
60935;SDS011;46804;51.786;19.520;2023-09-07T21:29:11;9.98;;;6.15;;
60935;SDS011;46804;51.786;19.520;2023-09-07T21:33:12;13.38;;;6.30;;
60935;SDS011;46804;51.786;19.520;2023-09-07T21:37:12;7.78;;;5.72;;
60935;SDS011;46804;51.786;19.520;2023-09-07T21:41:14;10.18;;;6.25;;
60935;SDS011;46804;51.786;19.520;2023-09-07T21:45:15;9.50;;;5.65;;
60935;SDS011;46804;51.786;19.520;2023-09-07T21:49:16;11.15;;;6.25;;
60935;SDS011;46804;51.786;19.520;2023-09-07T21:53:17;9.18;;;6.38;;
60935;SDS011;46804;51.786;19.520;2023-09-07T21:57:18;8.55;;;6.43;;
60935;SDS011;46804;51.786;19.520;2023-09-07T22:01:24;11.63;;;6.35;;
60935;SDS011;46804;51.786;19.520;2023-09-07T22:05:24;11.70;;;6.25;;
60935;SDS011;46804;51.786;19.520;2023-09-07T22:09:25;9.23;;;6.35;;
60935;SDS011;46804;51.786;19.520;2023-09-07T22:13:26;11.93;;;6.30;;
60935;SDS011;46804;51.786;19.520;2023-09-07T22:17:26;8.35;;;6.35;;
60935;SDS011;46804;51.786;19.520;2023-09-07T22:21:27;9.07;;;6.55;;
60935;SDS011;46804;51.786;19.520;2023-09-07T22:25:28;9.70;;;6.43;;
60935;SDS011;46804;51.786;19.520;2023-09-07T22:29:29;20.40;;;6.70;;
60935;SDS011;46804;51.786;19.520;2023-09-07T22:33:29;9.73;;;6.25;;
60935;SDS011;46804;51.786;19.520;2023-09-07T22:37:30;11.18;;;6.90;;
60935;SDS011;46804;51.786;19.520;2023-09-07T22:41:31;14.52;;;6.95;;
60935;SDS011;46804;51.786;19.520;2023-09-07T22:45:35;10.65;;;6.75;;
60935;SDS011;46804;51.786;19.520;2023-09-07T22:53:46;9.07;;;5.97;;
60935;SDS011;46804;51.786;19.520;2023-09-07T22:57:46;8.68;;;6.03;;
60935;SDS011;46804;51.786;19.520;2023-09-07T23:01:48;8.40;;;5.97;;
60935;SDS011;46804;51.786;19.520;2023-09-07T23:05:48;7.72;;;5.75;;
60935;SDS011;46804;51.786;19.520;2023-09-07T23:09:51;8.90;;;5.53;;
60935;SDS011;46804;51.786;19.520;2023-09-07T23:13:51;11.40;;;5.40;;
60935;SDS011;46804;51.786;19.520;2023-09-07T23:17:52;14.45;;;6.43;;
60935;SDS011;46804;51.786;19.520;2023-09-07T23:21:53;10.32;;;6.05;;
60935;SDS011;46804;51.786;19.520;2023-09-07T23:25:54;8.93;;;5.57;;
60935;SDS011;46804;51.786;19.520;2023-09-07T23:29:55;10.18;;;6.35;;
60935;SDS011;46804;51.786;19.520;2023-09-07T23:33:56;10.95;;;5.63;;
60935;SDS011;46804;51.786;19.520;2023-09-07T23:37:57;14.80;;;5.85;;
60935;SDS011;46804;51.786;19.520;2023-09-07T23:41:58;8.50;;;5.70;;
60935;SDS011;46804;51.786;19.520;2023-09-07T23:45:58;12.57;;;6.00;;
60935;SDS011;46804;51.786;19.520;2023-09-07T23:49:59;10.27;;;5.53;;
60935;SDS011;46804;51.786;19.520;2023-09-07T23:54:00;10.02;;;6.28;;
60935;SDS011;46804;51.786;19.520;2023-09-07T23:58:01;8.95;;;6.10;;
